sensor_id;sensor_type;location;lat;lon;timestamp;P1;durP1;ratioP1;P2;durP2;ratioP2
12689;SDS011;6409;56.294;14.480;2022-07-11T00:02:02;0.63;;;0.63;;
12689;SDS011;6409;56.294;14.480;2022-07-11T00:04:30;0.53;;;0.53;;
12689;SDS011;6409;56.294;14.480;2022-07-11T00:06:57;0.50;;;0.50;;
12689;SDS011;6409;56.294;14.480;2022-07-11T00:09:26;0.60;;;0.60;;
12689;SDS011;6409;56.294;14.480;2022-07-11T00:11:53;0.70;;;0.70;;
12689;SDS011;6409;56.294;14.480;2022-07-11T00:14:20;0.63;;;0.63;;
12689;SDS011;6409;56.294;14.480;2022-07-11T00:16:48;0.70;;;0.70;;
12689;SDS011;6409;56.294;14.480;2022-07-11T00:19:15;0.97;;;0.90;;
12689;SDS011;6409;56.294;14.480;2022-07-11T00:21:42;0.60;;;0.60;;
12689;SDS011;6409;56.294;14.480;2022-07-11T00:24:08;0.60;;;0.60;;
12689;SDS011;6409;56.294;14.480;2022-07-11T00:26:37;0.70;;;0.70;;
12689;SDS011;6409;56.294;14.480;2022-07-11T00:29:04;0.80;;;0.70;;
12689;SDS011;6409;56.294;14.480;2022-07-11T00:31:31;0.70;;;0.70;;
12689;SDS011;6409;56.294;14.480;2022-07-11T00:33:58;0.50;;;0.50;;
12689;SDS011;6409;56.294;14.480;2022-07-11T00:36:25;0.53;;;0.53;;
12689;SDS011;6409;56.294;14.480;2022-07-11T00:38:52;0.63;;;0.63;;
12689;SDS011;6409;56.294;14.480;2022-07-11T00:41:19;1.13;;;0.67;;
12689;SDS011;6409;56.294;14.480;2022-07-11T00:43:52;0.70;;;0.70;;
12689;SDS011;6409;56.294;14.480;2022-07-11T00:46:21;1.20;;;0.60;;
12689;SDS011;6409;56.294;14.480;2022-07-11T00:48:48;0.57;;;0.57;;
12689;SDS011;6409;56.294;14.480;2022-07-11T00:51:15;0.60;;;0.60;;
12689;SDS011;6409;56.294;14.480;2022-07-11T00:53:46;0.57;;;0.57;;
12689;SDS011;6409;56.294;14.480;2022-07-11T00:56:13;0.73;;;0.73;;
12689;SDS011;6409;56.294;14.480;2022-07-11T00:58:41;2.40;;;0.73;;
12689;SDS011;6409;56.294;14.480;2022-07-11T01:01:09;0.60;;;0.60;;
12689;SDS011;6409;56.294;14.480;2022-07-11T01:03:36;0.80;;;0.80;;
12689;SDS011;6409;56.294;14.480;2022-07-11T01:06:05;0.70;;;0.70;;
12689;SDS011;6409;56.294;14.480;2022-07-11T01:08:32;0.50;;;0.50;;
12689;SDS011;6409;56.294;14.480;2022-07-11T01:11:00;0.70;;;0.70;;
12689;SDS011;6409;56.294;14.480;2022-07-11T01:13:28;0.50;;;0.50;;
12689;SDS011;6409;56.294;14.480;2022-07-11T01:16:11;0.63;;;0.63;;
12689;SDS011;6409;56.294;14.480;2022-07-11T01:18:42;0.50;;;0.50;;
12689;SDS011;6409;56.294;14.480;2022-07-11T01:21:13;1.20;;;0.80;;
12689;SDS011;6409;56.294;14.480;2022-07-11T01:23:47;0.60;;;0.60;;
12689;SDS011;6409;56.294;14.480;2022-07-11T01:26:15;0.63;;;0.63;;
12689;SDS011;6409;56.294;14.480;2022-07-11T01:28:42;0.70;;;0.70;;
12689;SDS011;6409;56.294;14.480;2022-07-11T01:31:10;0.60;;;0.60;;
12689;SDS011;6409;56.294;14.480;2022-07-11T01:33:37;0.60;;;0.60;;
12689;SDS011;6409;56.294;14.480;2022-07-11T01:36:04;0.70;;;0.70;;
12689;SDS011;6409;56.294;14.480;2022-07-11T01:38:32;0.60;;;0.60;;
12689;SDS011;6409;56.294;14.480;2022-07-11T01:41:00;0.50;;;0.50;;
12689;SDS011;6409;56.294;14.480;2022-07-11T01:43:27;0.60;;;0.60;;
12689;SDS011;6409;56.294;14.480;2022-07-11T01:45:54;0.57;;;0.57;;
12689;SDS011;6409;56.294;14.480;2022-07-11T01:48:22;0.70;;;0.70;;
12689;SDS011;6409;56.294;14.480;2022-07-11T01:50:49;0.60;;;0.60;;
12689;SDS011;6409;56.294;14.480;2022-07-11T01:53:16;0.50;;;0.50;;
12689;SDS011;6409;56.294;14.480;2022-07-11T01:55:43;0.50;;;0.50;;
12689;SDS011;6409;56.294;14.480;2022-07-11T01:58:12;0.60;;;0.60;;
12689;SDS011;6409;56.294;14.480;2022-07-11T02:00:39;0.60;;;0.60;;
12689;SDS011;6409;56.294;14.480;2022-07-11T02:03:05;0.60;;;0.60;;
12689;SDS011;6409;56.294;14.480;2022-07-11T02:05:32;0.60;;;0.60;;
12689;SDS011;6409;56.294;14.480;2022-07-11T02:07:59;0.73;;;0.73;;
12689;SDS011;6409;56.294;14.480;2022-07-11T02:10:39;0.60;;;0.60;;
12689;SDS011;6409;56.294;14.480;2022-07-11T02:13:12;0.80;;;0.80;;
12689;SDS011;6409;56.294;14.480;2022-07-11T02:15:40;0.60;;;0.60;;
12689;SDS011;6409;56.294;14.480;2022-07-11T02:18:08;0.70;;;0.70;;
12689;SDS011;6409;56.294;14.480;2022-07-11T02:20:37;0.60;;;0.60;;
12689;SDS011;6409;56.294;14.480;2022-07-11T02:23:04;2.63;;;0.90;;
12689;SDS011;6409;56.294;14.480;2022-07-11T02:25:31;0.50;;;0.50;;
12689;SDS011;6409;56.294;14.480;2022-07-11T02:28:00;0.60;;;0.60;;
12689;SDS011;6409;56.294;14.480;2022-07-11T02:30:29;0.60;;;0.60;;
12689;SDS011;6409;56.294;14.480;2022-07-11T02:32:56;0.83;;;0.67;;
12689;SDS011;6409;56.294;14.480;2022-07-11T02:35:23;0.60;;;0.60;;
12689;SDS011;6409;56.294;14.480;2022-07-11T02:37:50;0.70;;;0.70;;
12689;SDS011;6409;56.294;14.480;2022-07-11T02:40:17;0.90;;;0.70;;
12689;SDS011;6409;56.294;14.480;2022-07-11T02:42:44;0.50;;;0.50;;
12689;SDS011;6409;56.294;14.480;2022-07-11T02:45:11;0.47;;;0.47;;
12689;SDS011;6409;56.294;14.480;2022-07-11T02:47:40;0.60;;;0.60;;
12689;SDS011;6409;56.294;14.480;2022-07-11T02:50:08;0.60;;;0.60;;
12689;SDS011;6409;56.294;14.480;2022-07-11T02:52:36;0.60;;;0.60;;
12689;SDS011;6409;56.294;14.480;2022-07-11T02:55:03;0.70;;;0.70;;
12689;SDS011;6409;56.294;14.480;2022-07-11T02:57:32;1.60;;;0.70;;
12689;SDS011;6409;56.294;14.480;2022-07-11T02:59:59;0.60;;;0.60;;
12689;SDS011;6409;56.294;14.480;2022-07-11T03:02:27;0.60;;;0.60;;
12689;SDS011;6409;56.294;14.480;2022-07-11T03:04:55;1.27;;;0.53;;
12689;SDS011;6409;56.294;14.480;2022-07-11T03:07:23;0.70;;;0.70;;
12689;SDS011;6409;56.294;14.480;2022-07-11T03:09:51;0.90;;;0.70;;
12689;SDS011;6409;56.294;14.480;2022-07-11T03:12:18;0.60;;;0.60;;
12689;SDS011;6409;56.294;14.480;2022-07-11T03:14:45;0.70;;;0.70;;
12689;SDS011;6409;56.294;14.480;2022-07-11T03:17:12;0.70;;;0.70;;
12689;SDS011;6409;56.294;14.480;2022-07-11T03:19:39;0.77;;;0.77;;
12689;SDS011;6409;56.294;14.480;2022-07-11T03:22:07;0.80;;;0.80;;
12689;SDS011;6409;56.294;14.480;2022-07-11T03:24:34;0.60;;;0.60;;
12689;SDS011;6409;56.294;14.480;2022-07-11T03:27:02;0.50;;;0.50;;
12689;SDS011;6409;56.294;14.480;2022-07-11T03:29:29;0.77;;;0.77;;
12689;SDS011;6409;56.294;14.480;2022-07-11T03:31:56;2.23;;;0.73;;
12689;SDS011;6409;56.294;14.480;2022-07-11T03:34:23;0.57;;;0.57;;
12689;SDS011;6409;56.294;14.480;2022-07-11T03:36:49;0.70;;;0.70;;
12689;SDS011;6409;56.294;14.480;2022-07-11T03:39:18;0.70;;;0.70;;
12689;SDS011;6409;56.294;14.480;2022-07-11T03:41:46;0.70;;;0.70;;
12689;SDS011;6409;56.294;14.480;2022-07-11T03:44:13;0.70;;;0.70;;
12689;SDS011;6409;56.294;14.480;2022-07-11T03:46:40;0.83;;;0.83;;
12689;SDS011;6409;56.294;14.480;2022-07-11T03:49:07;0.60;;;0.60;;
12689;SDS011;6409;56.294;14.480;2022-07-11T03:51:34;0.70;;;0.70;;
12689;SDS011;6409;56.294;14.480;2022-07-11T03:54:01;0.60;;;0.60;;
12689;SDS011;6409;56.294;14.480;2022-07-11T03:56:29;0.60;;;0.60;;
12689;SDS011;6409;56.294;14.480;2022-07-11T03:58:56;0.50;;;0.50;;
12689;SDS011;6409;56.294;14.480;2022-07-11T04:01:23;0.57;;;0.57;;
12689;SDS011;6409;56.294;14.480;2022-07-11T04:03:50;0.70;;;0.70;;
12689;SDS011;6409;56.294;14.480;2022-07-11T04:06:17;0.70;;;0.70;;
12689;SDS011;6409;56.294;14.480;2022-07-11T04:08:45;0.67;;;0.50;;
12689;SDS011;6409;56.294;14.480;2022-07-11T04:11:11;0.50;;;0.50;;
12689;SDS011;6409;56.294;14.480;2022-07-11T04:13:40;0.60;;;0.60;;
12689;SDS011;6409;56.294;14.480;2022-07-11T04:16:07;0.60;;;0.60;;
12689;SDS011;6409;56.294;14.480;2022-07-11T04:18:34;6.80;;;0.77;;
12689;SDS011;6409;56.294;14.480;2022-07-11T04:21:01;0.50;;;0.50;;
12689;SDS011;6409;56.294;14.480;2022-07-11T04:23:28;0.50;;;0.50;;
12689;SDS011;6409;56.294;14.480;2022-07-11T04:25:54;0.93;;;0.93;;
12689;SDS011;6409;56.294;14.480;2022-07-11T04:28:21;0.60;;;0.60;;
12689;SDS011;6409;56.294;14.480;2022-07-11T04:30:50;0.63;;;0.63;;
12689;SDS011;6409;56.294;14.480;2022-07-11T04:33:16;0.70;;;0.70;;
12689;SDS011;6409;56.294;14.480;2022-07-11T04:35:44;0.67;;;0.67;;
12689;SDS011;6409;56.294;14.480;2022-07-11T04:38:10;5.83;;;0.70;;
12689;SDS011;6409;56.294;14.480;2022-07-11T04:40:37;0.60;;;0.60;;
12689;SDS011;6409;56.294;14.480;2022-07-11T04:43:04;0.70;;;0.70;;
12689;SDS011;6409;56.294;14.480;2022-07-11T04:45:31;0.70;;;0.70;;
12689;SDS011;6409;56.294;14.480;2022-07-11T04:47:59;0.60;;;0.60;;
12689;SDS011;6409;56.294;14.480;2022-07-11T04:50:27;0.77;;;0.77;;
12689;SDS011;6409;56.294;14.480;2022-07-11T04:52:54;0.80;;;0.80;;
12689;SDS011;6409;56.294;14.480;2022-07-11T04:55:21;0.70;;;0.67;;
12689;SDS011;6409;56.294;14.480;2022-07-11T04:57:48;0.70;;;0.70;;
12689;SDS011;6409;56.294;14.480;2022-07-11T05:00:15;0.70;;;0.70;;
12689;SDS011;6409;56.294;14.480;2022-07-11T05:02:42;1.23;;;0.70;;
12689;SDS011;6409;56.294;14.480;2022-07-11T05:05:10;0.80;;;0.80;;
12689;SDS011;6409;56.294;14.480;2022-07-11T05:07:37;1.13;;;0.70;;
12689;SDS011;6409;56.294;14.480;2022-07-11T05:10:05;0.60;;;0.60;;
12689;SDS011;6409;56.294;14.480;2022-07-11T05:12:33;0.73;;;0.73;;
12689;SDS011;6409;56.294;14.480;2022-07-11T05:14:59;0.60;;;0.60;;
12689;SDS011;6409;56.294;14.480;2022-07-11T05:17:26;0.60;;;0.60;;
12689;SDS011;6409;56.294;14.480;2022-07-11T05:19:54;0.50;;;0.50;;
12689;SDS011;6409;56.294;14.480;2022-07-11T05:22:22;0.60;;;0.60;;
12689;SDS011;6409;56.294;14.480;2022-07-11T05:24:49;0.70;;;0.70;;
12689;SDS011;6409;56.294;14.480;2022-07-11T05:27:16;0.70;;;0.70;;
12689;SDS011;6409;56.294;14.480;2022-07-11T05:29:43;0.70;;;0.70;;
12689;SDS011;6409;56.294;14.480;2022-07-11T05:32:10;0.67;;;0.67;;
12689;SDS011;6409;56.294;14.480;2022-07-11T05:34:37;0.73;;;0.73;;
12689;SDS011;6409;56.294;14.480;2022-07-11T05:37:04;0.87;;;0.87;;
12689;SDS011;6409;56.294;14.480;2022-07-11T05:39:33;0.90;;;0.90;;
12689;SDS011;6409;56.294;14.480;2022-07-11T05:42:00;0.70;;;0.70;;
12689;SDS011;6409;56.294;14.480;2022-07-11T05:44:27;0.73;;;0.73;;
12689;SDS011;6409;56.294;14.480;2022-07-11T05:46:57;0.80;;;0.80;;
12689;SDS011;6409;56.294;14.480;2022-07-11T05:49:26;0.87;;;0.87;;
12689;SDS011;6409;56.294;14.480;2022-07-11T05:51:54;0.90;;;0.90;;
12689;SDS011;6409;56.294;14.480;2022-07-11T05:54:21;0.77;;;0.77;;
12689;SDS011;6409;56.294;14.480;2022-07-11T05:56:50;1.00;;;1.00;;
12689;SDS011;6409;56.294;14.480;2022-07-11T05:59:17;1.00;;;1.00;;
12689;SDS011;6409;56.294;14.480;2022-07-11T06:01:44;0.90;;;0.90;;
12689;SDS011;6409;56.294;14.480;2022-07-11T06:04:11;1.10;;;1.00;;
12689;SDS011;6409;56.294;14.480;2022-07-11T06:06:38;1.40;;;1.10;;
12689;SDS011;6409;56.294;14.480;2022-07-11T06:09:05;0.80;;;0.80;;
12689;SDS011;6409;56.294;14.480;2022-07-11T06:11:32;1.10;;;1.10;;
12689;SDS011;6409;56.294;14.480;2022-07-11T06:14:01;1.00;;;1.00;;
12689;SDS011;6409;56.294;14.480;2022-07-11T06:16:28;1.10;;;1.10;;
12689;SDS011;6409;56.294;14.480;2022-07-11T06:18:55;0.90;;;0.90;;
12689;SDS011;6409;56.294;14.480;2022-07-11T06:21:22;2.00;;;1.17;;
12689;SDS011;6409;56.294;14.480;2022-07-11T06:23:49;1.00;;;1.00;;
12689;SDS011;6409;56.294;14.480;2022-07-11T06:26:16;0.97;;;0.97;;
12689;SDS011;6409;56.294;14.480;2022-07-11T06:28:43;2.30;;;1.00;;
12689;SDS011;6409;56.294;14.480;2022-07-11T06:31:11;1.30;;;1.30;;
12689;SDS011;6409;56.294;14.480;2022-07-11T06:33:38;1.58;;;1.48;;
12689;SDS011;6409;56.294;14.480;2022-07-11T06:36:06;2.72;;;1.50;;
12689;SDS011;6409;56.294;14.480;2022-07-11T06:38:33;1.40;;;1.40;;
12689;SDS011;6409;56.294;14.480;2022-07-11T06:41:00;3.27;;;1.60;;
12689;SDS011;6409;56.294;14.480;2022-07-11T06:43:29;2.20;;;1.60;;
12689;SDS011;6409;56.294;14.480;2022-07-11T06:45:56;1.90;;;1.53;;
12689;SDS011;6409;56.294;14.480;2022-07-11T06:48:26;1.50;;;1.50;;
12689;SDS011;6409;56.294;14.480;2022-07-11T06:50:52;3.00;;;1.80;;
12689;SDS011;6409;56.294;14.480;2022-07-11T06:53:19;1.50;;;1.50;;
12689;SDS011;6409;56.294;14.480;2022-07-11T06:55:46;1.40;;;1.40;;
12689;SDS011;6409;56.294;14.480;2022-07-11T06:58:13;1.60;;;1.60;;
12689;SDS011;6409;56.294;14.480;2022-07-11T07:00:57;1.53;;;1.53;;
12689;SDS011;6409;56.294;14.480;2022-07-11T07:03:25;7.10;;;2.00;;
12689;SDS011;6409;56.294;14.480;2022-07-11T07:05:53;1.70;;;1.70;;
12689;SDS011;6409;56.294;14.480;2022-07-11T07:08:22;2.17;;;1.70;;
12689;SDS011;6409;56.294;14.480;2022-07-11T07:10:49;1.77;;;1.70;;
12689;SDS011;6409;56.294;14.480;2022-07-11T07:13:16;1.80;;;1.80;;
12689;SDS011;6409;56.294;14.480;2022-07-11T07:15:43;1.77;;;1.77;;
12689;SDS011;6409;56.294;14.480;2022-07-11T07:18:11;1.73;;;1.73;;
12689;SDS011;6409;56.294;14.480;2022-07-11T07:20:39;2.17;;;2.07;;
12689;SDS011;6409;56.294;14.480;2022-07-11T07:23:06;2.17;;;2.07;;
12689;SDS011;6409;56.294;14.480;2022-07-11T07:25:34;1.83;;;1.83;;
12689;SDS011;6409;56.294;14.480;2022-07-11T07:28:00;2.00;;;1.90;;
12689;SDS011;6409;56.294;14.480;2022-07-11T07:30:27;2.10;;;2.00;;
12689;SDS011;6409;56.294;14.480;2022-07-11T07:32:54;2.25;;;2.20;;
12689;SDS011;6409;56.294;14.480;2022-07-11T07:35:21;2.30;;;2.20;;
12689;SDS011;6409;56.294;14.480;2022-07-11T07:37:50;2.38;;;2.28;;
12689;SDS011;6409;56.294;14.480;2022-07-11T07:40:17;2.20;;;2.10;;
12689;SDS011;6409;56.294;14.480;2022-07-11T07:42:44;6.55;;;2.20;;
12689;SDS011;6409;56.294;14.480;2022-07-11T07:45:11;2.20;;;2.10;;
12689;SDS011;6409;56.294;14.480;2022-07-11T07:47:38;2.10;;;2.00;;
12689;SDS011;6409;56.294;14.480;2022-07-11T07:50:05;2.00;;;1.90;;
12689;SDS011;6409;56.294;14.480;2022-07-11T07:52:33;1.80;;;1.80;;
12689;SDS011;6409;56.294;14.480;2022-07-11T07:55:01;2.10;;;2.00;;
12689;SDS011;6409;56.294;14.480;2022-07-11T07:57:28;1.90;;;1.80;;
12689;SDS011;6409;56.294;14.480;2022-07-11T07:59:55;3.33;;;2.00;;
12689;SDS011;6409;56.294;14.480;2022-07-11T08:02:42;2.15;;;2.05;;
12689;SDS011;6409;56.294;14.480;2022-07-11T08:05:08;1.80;;;1.80;;
12689;SDS011;6409;56.294;14.480;2022-07-11T08:07:35;1.90;;;1.90;;
12689;SDS011;6409;56.294;14.480;2022-07-11T08:10:05;2.13;;;2.00;;
12689;SDS011;6409;56.294;14.480;2022-07-11T08:12:33;2.00;;;2.00;;
12689;SDS011;6409;56.294;14.480;2022-07-11T08:15:00;1.90;;;1.80;;
12689;SDS011;6409;56.294;14.480;2022-07-11T08:17:27;1.95;;;1.80;;
12689;SDS011;6409;56.294;14.480;2022-07-11T08:19:54;1.70;;;1.70;;
12689;SDS011;6409;56.294;14.480;2022-07-11T08:22:21;1.83;;;1.80;;
12689;SDS011;6409;56.294;14.480;2022-07-11T08:24:48;1.80;;;1.80;;
12689;SDS011;6409;56.294;14.480;2022-07-11T08:27:16;1.90;;;1.90;;
12689;SDS011;6409;56.294;14.480;2022-07-11T08:29:43;2.20;;;2.10;;
12689;SDS011;6409;56.294;14.480;2022-07-11T08:32:10;2.30;;;2.20;;
12689;SDS011;6409;56.294;14.480;2022-07-11T08:34:37;2.10;;;2.00;;
12689;SDS011;6409;56.294;14.480;2022-07-11T08:37:04;2.22;;;2.13;;
12689;SDS011;6409;56.294;14.480;2022-07-11T08:39:31;2.30;;;2.20;;
12689;SDS011;6409;56.294;14.480;2022-07-11T08:41:58;2.17;;;2.10;;
12689;SDS011;6409;56.294;14.480;2022-07-11T08:44:27;2.28;;;2.17;;
12689;SDS011;6409;56.294;14.480;2022-07-11T08:46:54;2.30;;;2.20;;
12689;SDS011;6409;56.294;14.480;2022-07-11T08:49:21;2.20;;;2.10;;
12689;SDS011;6409;56.294;14.480;2022-07-11T08:51:48;2.30;;;2.20;;
12689;SDS011;6409;56.294;14.480;2022-07-11T08:54:15;2.15;;;2.05;;
12689;SDS011;6409;56.294;14.480;2022-07-11T08:56:43;2.40;;;2.30;;
12689;SDS011;6409;56.294;14.480;2022-07-11T08:59:12;2.30;;;2.20;;
12689;SDS011;6409;56.294;14.480;2022-07-11T09:01:41;2.03;;;2.00;;
12689;SDS011;6409;56.294;14.480;2022-07-11T09:04:11;2.30;;;2.20;;
12689;SDS011;6409;56.294;14.480;2022-07-11T09:06:38;2.30;;;2.20;;
12689;SDS011;6409;56.294;14.480;2022-07-11T09:09:05;2.20;;;2.10;;
12689;SDS011;6409;56.294;14.480;2022-07-11T09:11:47;2.30;;;2.20;;
12689;SDS011;6409;56.294;14.480;2022-07-11T09:14:19;4.20;;;2.20;;
12689;SDS011;6409;56.294;14.480;2022-07-11T09:16:52;2.30;;;2.20;;
12689;SDS011;6409;56.294;14.480;2022-07-11T09:19:20;2.08;;;2.03;;
12689;SDS011;6409;56.294;14.480;2022-07-11T09:21:58;2.67;;;2.20;;
12689;SDS011;6409;56.294;14.480;2022-07-11T09:24:54;2.30;;;2.20;;
12689;SDS011;6409;56.294;14.480;2022-07-11T09:27:39;2.20;;;2.10;;
12689;SDS011;6409;56.294;14.480;2022-07-11T09:30:17;2.33;;;2.22;;
12689;SDS011;6409;56.294;14.480;2022-07-11T09:32:55;2.20;;;2.10;;
12689;SDS011;6409;56.294;14.480;2022-07-11T09:35:27;2.00;;;2.00;;
12689;SDS011;6409;56.294;14.480;2022-07-11T09:37:56;2.20;;;2.10;;
12689;SDS011;6409;56.294;14.480;2022-07-11T09:40:23;2.65;;;2.00;;
12689;SDS011;6409;56.294;14.480;2022-07-11T09:42:52;2.30;;;2.20;;
12689;SDS011;6409;56.294;14.480;2022-07-11T09:45:21;2.30;;;2.20;;
12689;SDS011;6409;56.294;14.480;2022-07-11T09:47:50;2.10;;;2.10;;
12689;SDS011;6409;56.294;14.480;2022-07-11T09:50:20;2.28;;;2.15;;
12689;SDS011;6409;56.294;14.480;2022-07-11T09:52:57;3.17;;;2.20;;
12689;SDS011;6409;56.294;14.480;2022-07-11T09:55:26;5.47;;;2.50;;
12689;SDS011;6409;56.294;14.480;2022-07-11T09:57:53;2.17;;;2.08;;
12689;SDS011;6409;56.294;14.480;2022-07-11T10:00:20;2.17;;;2.08;;
12689;SDS011;6409;56.294;14.480;2022-07-11T10:02:47;2.20;;;2.10;;
12689;SDS011;6409;56.294;14.480;2022-07-11T10:05:15;2.17;;;2.10;;
12689;SDS011;6409;56.294;14.480;2022-07-11T10:07:43;2.20;;;2.10;;
12689;SDS011;6409;56.294;14.480;2022-07-11T10:10:10;1.90;;;1.90;;
12689;SDS011;6409;56.294;14.480;2022-07-11T10:12:37;2.15;;;2.05;;
12689;SDS011;6409;56.294;14.480;2022-07-11T10:15:04;2.10;;;2.00;;
12689;SDS011;6409;56.294;14.480;2022-07-11T10:17:36;2.20;;;2.10;;
12689;SDS011;6409;56.294;14.480;2022-07-11T10:20:10;3.88;;;2.47;;
12689;SDS011;6409;56.294;14.480;2022-07-11T10:22:40;2.20;;;2.10;;
12689;SDS011;6409;56.294;14.480;2022-07-11T10:25:14;2.20;;;2.10;;
12689;SDS011;6409;56.294;14.480;2022-07-11T10:27:48;2.13;;;2.03;;
12689;SDS011;6409;56.294;14.480;2022-07-11T10:30:42;2.10;;;2.00;;
12689;SDS011;6409;56.294;14.480;2022-07-11T10:33:10;2.00;;;1.98;;
12689;SDS011;6409;56.294;14.480;2022-07-11T10:35:39;2.20;;;2.10;;
12689;SDS011;6409;56.294;14.480;2022-07-11T10:38:08;4.82;;;2.33;;
12689;SDS011;6409;56.294;14.480;2022-07-11T10:40:41;2.20;;;2.10;;
12689;SDS011;6409;56.294;14.480;2022-07-11T10:43:10;2.20;;;2.10;;
12689;SDS011;6409;56.294;14.480;2022-07-11T10:45:54;2.00;;;2.00;;
12689;SDS011;6409;56.294;14.480;2022-07-11T10:48:22;2.37;;;2.17;;
12689;SDS011;6409;56.294;14.480;2022-07-11T10:50:53;2.05;;;2.05;;
12689;SDS011;6409;56.294;14.480;2022-07-11T10:53:23;2.30;;;2.10;;
12689;SDS011;6409;56.294;14.480;2022-07-11T10:55:53;1.90;;;1.90;;
12689;SDS011;6409;56.294;14.480;2022-07-11T10:58:29;2.25;;;2.15;;
12689;SDS011;6409;56.294;14.480;2022-07-11T11:01:08;2.10;;;2.00;;
12689;SDS011;6409;56.294;14.480;2022-07-11T11:03:36;3.17;;;2.20;;
12689;SDS011;6409;56.294;14.480;2022-07-11T11:06:03;1.90;;;1.90;;
12689;SDS011;6409;56.294;14.480;2022-07-11T11:08:45;2.20;;;2.10;;
12689;SDS011;6409;56.294;14.480;2022-07-11T11:14:16;2.10;;;2.10;;
12689;SDS011;6409;56.294;14.480;2022-07-11T11:16:44;2.20;;;2.10;;
12689;SDS011;6409;56.294;14.480;2022-07-11T11:22:12;2.20;;;2.10;;
12689;SDS011;6409;56.294;14.480;2022-07-11T11:24:40;2.50;;;2.40;;
12689;SDS011;6409;56.294;14.480;2022-07-11T11:27:12;2.40;;;2.30;;
12689;SDS011;6409;56.294;14.480;2022-07-11T11:29:42;2.47;;;2.37;;
12689;SDS011;6409;56.294;14.480;2022-07-11T11:32:09;4.43;;;2.23;;
12689;SDS011;6409;56.294;14.480;2022-07-11T11:34:36;2.00;;;2.00;;
12689;SDS011;6409;56.294;14.480;2022-07-11T11:37:03;2.10;;;2.00;;
12689;SDS011;6409;56.294;14.480;2022-07-11T11:39:31;2.10;;;2.00;;
12689;SDS011;6409;56.294;14.480;2022-07-11T11:42:07;2.20;;;2.10;;
12689;SDS011;6409;56.294;14.480;2022-07-11T11:44:46;2.10;;;2.00;;
12689;SDS011;6409;56.294;14.480;2022-07-11T11:47:15;2.53;;;2.40;;
12689;SDS011;6409;56.294;14.480;2022-07-11T11:49:42;2.00;;;1.97;;
12689;SDS011;6409;56.294;14.480;2022-07-11T11:52:10;2.20;;;2.10;;
12689;SDS011;6409;56.294;14.480;2022-07-11T11:54:37;2.10;;;2.00;;
12689;SDS011;6409;56.294;14.480;2022-07-11T11:57:07;2.17;;;2.07;;
12689;SDS011;6409;56.294;14.480;2022-07-11T11:59:36;2.20;;;2.10;;
12689;SDS011;6409;56.294;14.480;2022-07-11T12:02:03;1.80;;;1.80;;
12689;SDS011;6409;56.294;14.480;2022-07-11T12:04:31;2.20;;;2.10;;
12689;SDS011;6409;56.294;14.480;2022-07-11T12:06:59;1.90;;;1.80;;
12689;SDS011;6409;56.294;14.480;2022-07-11T12:09:27;1.80;;;1.80;;
12689;SDS011;6409;56.294;14.480;2022-07-11T12:12:18;1.70;;;1.70;;
12689;SDS011;6409;56.294;14.480;2022-07-11T12:15:03;2.20;;;2.00;;
12689;SDS011;6409;56.294;14.480;2022-07-11T12:17:32;2.10;;;2.00;;
12689;SDS011;6409;56.294;14.480;2022-07-11T12:19:59;1.93;;;1.90;;
12689;SDS011;6409;56.294;14.480;2022-07-11T12:22:26;1.80;;;1.80;;
12689;SDS011;6409;56.294;14.480;2022-07-11T12:24:53;2.07;;;1.97;;
12689;SDS011;6409;56.294;14.480;2022-07-11T12:27:23;1.80;;;1.80;;
12689;SDS011;6409;56.294;14.480;2022-07-11T12:29:51;2.00;;;1.90;;
12689;SDS011;6409;56.294;14.480;2022-07-11T12:32:18;1.90;;;1.80;;
12689;SDS011;6409;56.294;14.480;2022-07-11T12:34:47;1.90;;;1.87;;
12689;SDS011;6409;56.294;14.480;2022-07-11T12:37:15;2.10;;;2.00;;
12689;SDS011;6409;56.294;14.480;2022-07-11T12:39:47;3.03;;;2.00;;
12689;SDS011;6409;56.294;14.480;2022-07-11T12:42:22;1.90;;;1.90;;
12689;SDS011;6409;56.294;14.480;2022-07-11T12:44:57;2.13;;;2.03;;
12689;SDS011;6409;56.294;14.480;2022-07-11T12:47:25;2.10;;;2.00;;
12689;SDS011;6409;56.294;14.480;2022-07-11T12:49:52;1.87;;;1.87;;
12689;SDS011;6409;56.294;14.480;2022-07-11T12:52:19;2.50;;;2.00;;
12689;SDS011;6409;56.294;14.480;2022-07-11T12:54:46;2.03;;;2.00;;
12689;SDS011;6409;56.294;14.480;2022-07-11T12:57:15;1.93;;;1.90;;
12689;SDS011;6409;56.294;14.480;2022-07-11T12:59:44;2.20;;;2.10;;
12689;SDS011;6409;56.294;14.480;2022-07-11T13:02:11;2.17;;;2.07;;
12689;SDS011;6409;56.294;14.480;2022-07-11T13:04:40;2.20;;;2.10;;
12689;SDS011;6409;56.294;14.480;2022-07-11T13:07:26;2.10;;;2.00;;
12689;SDS011;6409;56.294;14.480;2022-07-11T13:10:11;4.77;;;1.93;;
12689;SDS011;6409;56.294;14.480;2022-07-11T13:12:40;2.00;;;1.97;;
12689;SDS011;6409;56.294;14.480;2022-07-11T13:15:10;2.17;;;2.07;;
12689;SDS011;6409;56.294;14.480;2022-07-11T13:17:39;2.00;;;1.90;;
12689;SDS011;6409;56.294;14.480;2022-07-11T13:20:08;1.87;;;1.83;;
12689;SDS011;6409;56.294;14.480;2022-07-11T13:22:39;1.93;;;1.90;;
12689;SDS011;6409;56.294;14.480;2022-07-11T13:25:06;1.83;;;1.83;;
12689;SDS011;6409;56.294;14.480;2022-07-11T13:27:35;2.10;;;2.00;;
12689;SDS011;6409;56.294;14.480;2022-07-11T13:30:02;2.20;;;2.10;;
12689;SDS011;6409;56.294;14.480;2022-07-11T13:32:37;1.95;;;1.90;;
12689;SDS011;6409;56.294;14.480;2022-07-11T13:35:04;1.90;;;1.90;;
12689;SDS011;6409;56.294;14.480;2022-07-11T13:37:32;2.03;;;1.92;;
12689;SDS011;6409;56.294;14.480;2022-07-11T13:40:00;1.95;;;1.90;;
12689;SDS011;6409;56.294;14.480;2022-07-11T13:42:28;2.20;;;2.10;;
12689;SDS011;6409;56.294;14.480;2022-07-11T13:44:57;1.90;;;1.90;;
12689;SDS011;6409;56.294;14.480;2022-07-11T13:47:24;2.97;;;2.05;;
12689;SDS011;6409;56.294;14.480;2022-07-11T13:49:52;1.92;;;1.90;;
12689;SDS011;6409;56.294;14.480;2022-07-11T13:52:19;1.90;;;1.90;;
12689;SDS011;6409;56.294;14.480;2022-07-11T13:54:46;2.08;;;2.00;;
12689;SDS011;6409;56.294;14.480;2022-07-11T13:57:13;2.22;;;2.13;;
12689;SDS011;6409;56.294;14.480;2022-07-11T13:59:40;2.20;;;2.10;;
12689;SDS011;6409;56.294;14.480;2022-07-11T14:02:07;2.03;;;1.93;;
12689;SDS011;6409;56.294;14.480;2022-07-11T14:04:34;1.87;;;1.77;;
12689;SDS011;6409;56.294;14.480;2022-07-11T14:07:03;1.70;;;1.70;;
12689;SDS011;6409;56.294;14.480;2022-07-11T14:09:30;1.90;;;1.80;;
12689;SDS011;6409;56.294;14.480;2022-07-11T14:11:58;1.93;;;1.83;;
12689;SDS011;6409;56.294;14.480;2022-07-11T14:14:25;1.70;;;1.70;;
12689;SDS011;6409;56.294;14.480;2022-07-11T14:16:52;1.90;;;1.80;;
12689;SDS011;6409;56.294;14.480;2022-07-11T14:19:19;1.88;;;1.80;;
12689;SDS011;6409;56.294;14.480;2022-07-11T14:21:46;2.00;;;1.90;;
12689;SDS011;6409;56.294;14.480;2022-07-11T14:24:14;2.00;;;1.90;;
12689;SDS011;6409;56.294;14.480;2022-07-11T14:26:41;1.80;;;1.80;;
12689;SDS011;6409;56.294;14.480;2022-07-11T14:29:09;1.85;;;1.80;;
12689;SDS011;6409;56.294;14.480;2022-07-11T14:31:36;2.20;;;2.10;;
12689;SDS011;6409;56.294;14.480;2022-07-11T14:34:03;2.00;;;1.90;;
12689;SDS011;6409;56.294;14.480;2022-07-11T14:36:30;1.95;;;1.90;;
12689;SDS011;6409;56.294;14.480;2022-07-11T14:38:57;2.00;;;1.70;;
12689;SDS011;6409;56.294;14.480;2022-07-11T14:41:25;1.80;;;1.70;;
12689;SDS011;6409;56.294;14.480;2022-07-11T14:43:52;1.70;;;1.70;;
12689;SDS011;6409;56.294;14.480;2022-07-11T14:46:19;1.80;;;1.80;;
12689;SDS011;6409;56.294;14.480;2022-07-11T14:48:47;1.85;;;1.80;;
12689;SDS011;6409;56.294;14.480;2022-07-11T14:51:14;2.00;;;1.90;;
12689;SDS011;6409;56.294;14.480;2022-07-11T14:53:41;1.80;;;1.80;;
12689;SDS011;6409;56.294;14.480;2022-07-11T14:56:08;1.70;;;1.70;;
12689;SDS011;6409;56.294;14.480;2022-07-11T14:58:36;1.70;;;1.70;;
12689;SDS011;6409;56.294;14.480;2022-07-11T15:01:05;1.87;;;1.83;;
12689;SDS011;6409;56.294;14.480;2022-07-11T15:03:32;2.10;;;2.00;;